sensor_id;sensor_type;location;lat;lon;timestamp;pressure;altitude;pressure_sealevel;temperature;humidity
48862;BME280;34681;49.188;-0.374;2023-04-21T00:02:04;101131.13;;;10.41;61.03
48862;BME280;34681;49.188;-0.374;2023-04-21T00:04:30;101126.81;;;10.18;62.12
48862;BME280;34681;49.188;-0.374;2023-04-21T00:06:56;101131.69;;;10.35;61.65
48862;BME280;34681;49.188;-0.374;2023-04-21T00:09:25;101120.47;;;10.38;61.20
48862;BME280;34681;49.188;-0.374;2023-04-21T00:11:51;101124.41;;;10.46;61.31
48862;BME280;34681;49.188;-0.374;2023-04-21T00:14:16;101117.88;;;10.67;60.53
48862;BME280;34681;49.188;-0.374;2023-04-21T00:16:42;101118.41;;;11.02;59.45
48862;BME280;34681;49.188;-0.374;2023-04-21T00:19:07;101121.66;;;10.76;59.71
48862;BME280;34681;49.188;-0.374;2023-04-21T00:21:33;101119.34;;;10.20;61.25
48862;BME280;34681;49.188;-0.374;2023-04-21T00:23:59;101118.59;;;9.97;62.53
48862;BME280;34681;49.188;-0.374;2023-04-21T00:26:24;101109.69;;;9.95;62.58
48862;BME280;34681;49.188;-0.374;2023-04-21T00:28:49;101118.22;;;9.81;62.87
48862;BME280;34681;49.188;-0.374;2023-04-21T00:31:15;101117.78;;;9.65;63.36
48862;BME280;34681;49.188;-0.374;2023-04-21T00:33:40;101123.25;;;9.44;64.09
48862;BME280;34681;49.188;-0.374;2023-04-21T00:36:06;101111.75;;;9.82;63.33
48862;BME280;34681;49.188;-0.374;2023-04-21T00:38:31;101103.97;;;9.77;62.92
48862;BME280;34681;49.188;-0.374;2023-04-21T00:40:57;101098.94;;;10.03;62.47
48862;BME280;34681;49.188;-0.374;2023-04-21T00:43:22;101095.69;;;10.40;60.95
48862;BME280;34681;49.188;-0.374;2023-04-21T00:45:49;101098.13;;;10.12;61.69
48862;BME280;34681;49.188;-0.374;2023-04-21T00:48:15;101097.53;;;10.60;60.57
48862;BME280;34681;49.188;-0.374;2023-04-21T00:50:41;101091.78;;;10.63;60.23
48862;BME280;34681;49.188;-0.374;2023-04-21T00:53:07;101087.63;;;10.18;61.13
48862;BME280;34681;49.188;-0.374;2023-04-21T00:55:33;101081.28;;;9.87;62.41
48862;BME280;34681;49.188;-0.374;2023-04-21T00:57:59;101075.56;;;9.69;62.67
48862;BME280;34681;49.188;-0.374;2023-04-21T01:00:26;101081.72;;;9.29;63.98
48862;BME280;34681;49.188;-0.374;2023-04-21T01:02:52;101059.50;;;9.54;63.60
48862;BME280;34681;49.188;-0.374;2023-04-21T01:05:17;101062.56;;;9.61;63.34
48862;BME280;34681;49.188;-0.374;2023-04-21T01:07:43;101062.19;;;9.34;63.78
48862;BME280;34681;49.188;-0.374;2023-04-21T01:10:09;101060.09;;;9.26;64.08
48862;BME280;34681;49.188;-0.374;2023-04-21T01:12:42;101067.75;;;9.11;64.65
48862;BME280;34681;49.188;-0.374;2023-04-21T01:15:09;101048.16;;;9.06;64.70
48862;BME280;34681;49.188;-0.374;2023-04-21T01:17:35;101058.94;;;9.08;64.74
48862;BME280;34681;49.188;-0.374;2023-04-21T01:20:07;101060.13;;;8.94;65.16
48862;BME280;34681;49.188;-0.374;2023-04-21T01:22:36;101050.94;;;8.95;65.21
48862;BME280;34681;49.188;-0.374;2023-04-21T01:25:01;101046.81;;;9.00;65.03
48862;BME280;34681;49.188;-0.374;2023-04-21T01:27:27;101046.00;;;8.89;65.22
48862;BME280;34681;49.188;-0.374;2023-04-21T01:29:54;101045.75;;;8.81;65.51
48862;BME280;34681;49.188;-0.374;2023-04-21T01:32:23;101051.88;;;8.51;66.36
48862;BME280;34681;49.188;-0.374;2023-04-21T01:34:49;101052.16;;;8.48;66.64
48862;BME280;34681;49.188;-0.374;2023-04-21T01:37:17;101045.56;;;8.50;66.90
48862;BME280;34681;49.188;-0.374;2023-04-21T01:39:45;101043.56;;;8.63;66.29
48862;BME280;34681;49.188;-0.374;2023-04-21T01:42:11;101042.94;;;8.71;65.79
48862;BME280;34681;49.188;-0.374;2023-04-21T01:44:37;101041.09;;;8.49;66.11
48862;BME280;34681;49.188;-0.374;2023-04-21T01:47:03;101036.06;;;8.44;66.37
48862;BME280;34681;49.188;-0.374;2023-04-21T01:49:28;101026.84;;;8.34;66.19
48862;BME280;34681;49.188;-0.374;2023-04-21T01:51:54;101033.66;;;8.51;65.79
48862;BME280;34681;49.188;-0.374;2023-04-21T01:54:19;101024.84;;;8.70;65.63
48862;BME280;34681;49.188;-0.374;2023-04-21T01:56:44;101034.66;;;8.61;65.13
48862;BME280;34681;49.188;-0.374;2023-04-21T01:59:10;101036.56;;;8.82;64.88
48862;BME280;34681;49.188;-0.374;2023-04-21T02:01:35;101033.91;;;9.03;64.07
48862;BME280;34681;49.188;-0.374;2023-04-21T02:04:02;101033.34;;;8.88;64.15
48862;BME280;34681;49.188;-0.374;2023-04-21T02:06:28;101031.72;;;9.17;63.71
48862;BME280;34681;49.188;-0.374;2023-04-21T02:08:54;101027.91;;;9.09;63.61
48862;BME280;34681;49.188;-0.374;2023-04-21T02:11:19;101031.22;;;8.91;63.71
48862;BME280;34681;49.188;-0.374;2023-04-21T02:13:45;101031.03;;;8.72;64.84
48862;BME280;34681;49.188;-0.374;2023-04-21T02:16:10;101028.34;;;8.93;63.95
48862;BME280;34681;49.188;-0.374;2023-04-21T02:18:36;101019.78;;;8.97;63.67
48862;BME280;34681;49.188;-0.374;2023-04-21T02:21:04;101017.69;;;8.90;63.86
48862;BME280;34681;49.188;-0.374;2023-04-21T02:23:30;101021.78;;;8.95;63.35
48862;BME280;34681;49.188;-0.374;2023-04-21T02:25:55;101018.13;;;8.74;64.36
48862;BME280;34681;49.188;-0.374;2023-04-21T02:28:21;101019.69;;;8.88;64.16
48862;BME280;34681;49.188;-0.374;2023-04-21T02:30:46;101003.19;;;9.21;63.15
48862;BME280;34681;49.188;-0.374;2023-04-21T02:33:11;101008.50;;;9.23;63.31
48862;BME280;34681;49.188;-0.374;2023-04-21T02:35:37;101011.94;;;9.04;63.99
48862;BME280;34681;49.188;-0.374;2023-04-21T02:38:02;101011.72;;;8.96;64.10
48862;BME280;34681;49.188;-0.374;2023-04-21T02:40:31;101012.69;;;9.06;64.24
48862;BME280;34681;49.188;-0.374;2023-04-21T02:42:57;100999.25;;;9.14;63.94
48862;BME280;34681;49.188;-0.374;2023-04-21T02:45:22;100998.13;;;9.58;62.94
48862;BME280;34681;49.188;-0.374;2023-04-21T02:47:47;101004.28;;;9.81;61.96
48862;BME280;34681;49.188;-0.374;2023-04-21T02:50:13;100997.00;;;9.92;61.41
48862;BME280;34681;49.188;-0.374;2023-04-21T02:52:38;100998.31;;;9.67;62.00
48862;BME280;34681;49.188;-0.374;2023-04-21T02:55:04;100997.91;;;9.71;62.13
48862;BME280;34681;49.188;-0.374;2023-04-21T02:57:29;100995.13;;;9.41;62.98
48862;BME280;34681;49.188;-0.374;2023-04-21T02:59:54;100987.59;;;9.54;62.35
48862;BME280;34681;49.188;-0.374;2023-04-21T03:02:20;100980.16;;;9.35;63.12
48862;BME280;34681;49.188;-0.374;2023-04-21T03:04:45;100980.19;;;9.03;64.29
48862;BME280;34681;49.188;-0.374;2023-04-21T03:07:12;100967.94;;;8.97;64.63
48862;BME280;34681;49.188;-0.374;2023-04-21T03:09:38;100967.63;;;9.53;63.07
48862;BME280;34681;49.188;-0.374;2023-04-21T03:12:03;100969.09;;;9.37;63.10
48862;BME280;34681;49.188;-0.374;2023-04-21T03:14:29;100967.03;;;9.29;63.10
48862;BME280;34681;49.188;-0.374;2023-04-21T03:16:54;100963.81;;;9.03;64.36
48862;BME280;34681;49.188;-0.374;2023-04-21T03:19:19;100983.66;;;8.73;65.35
48862;BME280;34681;49.188;-0.374;2023-04-21T03:21:45;100983.47;;;8.54;65.97
48862;BME280;34681;49.188;-0.374;2023-04-21T03:24:10;100981.88;;;8.29;66.55
48862;BME280;34681;49.188;-0.374;2023-04-21T03:26:38;100965.97;;;8.34;66.75
48862;BME280;34681;49.188;-0.374;2023-04-21T03:29:04;100964.84;;;8.59;66.31
48862;BME280;34681;49.188;-0.374;2023-04-21T03:31:30;100963.53;;;8.42;66.22
48862;BME280;34681;49.188;-0.374;2023-04-21T03:33:55;100962.38;;;8.56;66.40
48862;BME280;34681;49.188;-0.374;2023-04-21T03:36:21;100966.19;;;8.64;66.18
48862;BME280;34681;49.188;-0.374;2023-04-21T03:38:46;100958.88;;;8.65;65.99
48862;BME280;34681;49.188;-0.374;2023-04-21T03:41:12;100961.34;;;9.00;65.08
48862;BME280;34681;49.188;-0.374;2023-04-21T03:43:37;100949.50;;;9.32;63.90
48862;BME280;34681;49.188;-0.374;2023-04-21T03:46:02;100946.88;;;9.72;62.35
48862;BME280;34681;49.188;-0.374;2023-04-21T03:48:28;100946.94;;;9.91;61.33
48862;BME280;34681;49.188;-0.374;2023-04-21T03:50:53;100944.66;;;9.96;61.28
48862;BME280;34681;49.188;-0.374;2023-04-21T03:53:19;100937.66;;;10.03;60.88
48862;BME280;34681;49.188;-0.374;2023-04-21T03:55:44;100938.22;;;10.07;60.75
48862;BME280;34681;49.188;-0.374;2023-04-21T03:58:14;100941.00;;;10.17;60.31
48862;BME280;34681;49.188;-0.374;2023-04-21T04:00:39;100934.66;;;10.16;60.36
48862;BME280;34681;49.188;-0.374;2023-04-21T04:03:05;100931.78;;;10.18;59.81
48862;BME280;34681;49.188;-0.374;2023-04-21T04:05:31;100928.31;;;10.16;59.93
48862;BME280;34681;49.188;-0.374;2023-04-21T04:07:57;100934.22;;;10.11;60.14
48862;BME280;34681;49.188;-0.374;2023-04-21T04:10:22;100936.66;;;10.14;60.13
48862;BME280;34681;49.188;-0.374;2023-04-21T04:12:48;100919.53;;;10.12;59.96
48862;BME280;34681;49.188;-0.374;2023-04-21T04:15:13;100920.25;;;10.14;59.88
48862;BME280;34681;49.188;-0.374;2023-04-21T04:17:39;100912.22;;;10.12;60.01
48862;BME280;34681;49.188;-0.374;2023-04-21T04:20:06;100918.84;;;10.10;59.92
48862;BME280;34681;49.188;-0.374;2023-04-21T04:22:32;100912.75;;;10.06;60.11
48862;BME280;34681;49.188;-0.374;2023-04-21T04:24:58;100904.56;;;10.06;59.96
48862;BME280;34681;49.188;-0.374;2023-04-21T04:27:23;100902.53;;;10.08;59.76
48862;BME280;34681;49.188;-0.374;2023-04-21T04:29:49;100906.13;;;10.09;59.75
48862;BME280;34681;49.188;-0.374;2023-04-21T04:32:14;100912.00;;;9.95;60.00
48862;BME280;34681;49.188;-0.374;2023-04-21T04:34:40;100902.97;;;10.04;59.92
48862;BME280;34681;49.188;-0.374;2023-04-21T04:37:05;100894.91;;;10.02;59.69
48862;BME280;34681;49.188;-0.374;2023-04-21T04:39:31;100887.59;;;10.03;59.73
48862;BME280;34681;49.188;-0.374;2023-04-21T04:41:56;100891.59;;;9.99;59.79
48862;BME280;34681;49.188;-0.374;2023-04-21T04:44:22;100890.88;;;9.97;59.75
48862;BME280;34681;49.188;-0.374;2023-04-21T04:46:49;100892.72;;;9.96;59.94
48862;BME280;34681;49.188;-0.374;2023-04-21T04:49:15;100889.84;;;9.98;59.60
48862;BME280;34681;49.188;-0.374;2023-04-21T04:51:40;100882.97;;;9.94;59.47
48862;BME280;34681;49.188;-0.374;2023-04-21T04:54:06;100879.47;;;9.92;59.98
48862;BME280;34681;49.188;-0.374;2023-04-21T04:56:31;100880.47;;;9.91;59.69
48862;BME280;34681;49.188;-0.374;2023-04-21T04:58:57;100876.31;;;9.87;60.13
48862;BME280;34681;49.188;-0.374;2023-04-21T05:01:22;100875.47;;;9.96;59.79
48862;BME280;34681;49.188;-0.374;2023-04-21T05:03:54;100878.34;;;9.94;59.66
48862;BME280;34681;49.188;-0.374;2023-04-21T05:06:19;100887.97;;;9.89;59.95
48862;BME280;34681;49.188;-0.374;2023-04-21T05:08:45;100887.97;;;9.89;59.88
48862;BME280;34681;49.188;-0.374;2023-04-21T05:11:10;100891.69;;;9.88;59.64
48862;BME280;34681;49.188;-0.374;2023-04-21T05:13:35;100894.31;;;9.99;59.19
48862;BME280;34681;49.188;-0.374;2023-04-21T05:16:01;100894.78;;;10.04;58.99
48862;BME280;34681;49.188;-0.374;2023-04-21T05:18:27;100898.22;;;10.06;59.12
48862;BME280;34681;49.188;-0.374;2023-04-21T05:20:52;100905.56;;;10.05;59.50
48862;BME280;34681;49.188;-0.374;2023-04-21T05:23:18;100901.56;;;10.09;59.58
48862;BME280;34681;49.188;-0.374;2023-04-21T05:25:43;100903.03;;;10.23;59.48
48862;BME280;34681;49.188;-0.374;2023-04-21T05:28:09;100901.06;;;10.35;58.94
48862;BME280;34681;49.188;-0.374;2023-04-21T05:30:34;100901.34;;;10.41;58.98
48862;BME280;34681;49.188;-0.374;2023-04-21T05:32:59;100911.88;;;10.46;59.05
48862;BME280;34681;49.188;-0.374;2023-04-21T05:35:25;100908.13;;;10.57;59.11
48862;BME280;34681;49.188;-0.374;2023-04-21T05:37:50;100910.31;;;10.73;58.63
48862;BME280;34681;49.188;-0.374;2023-04-21T05:40:15;100908.16;;;10.76;58.96
48862;BME280;34681;49.188;-0.374;2023-04-21T05:42:41;100910.59;;;10.89;58.66
48862;BME280;34681;49.188;-0.374;2023-04-21T05:45:06;100916.38;;;10.95;58.43
48862;BME280;34681;49.188;-0.374;2023-04-21T05:47:34;100915.91;;;11.00;58.43
48862;BME280;34681;49.188;-0.374;2023-04-21T05:50:02;100904.94;;;11.00;58.69
48862;BME280;34681;49.188;-0.374;2023-04-21T05:52:27;100910.84;;;11.15;58.16
48862;BME280;34681;49.188;-0.374;2023-04-21T05:54:52;100900.91;;;11.14;58.67
48862;BME280;34681;49.188;-0.374;2023-04-21T05:57:18;100906.63;;;11.40;58.56
48862;BME280;34681;49.188;-0.374;2023-04-21T05:59:43;100901.53;;;11.54;57.80
48862;BME280;34681;49.188;-0.374;2023-04-21T06:02:08;100909.44;;;11.67;57.20
48862;BME280;34681;49.188;-0.374;2023-04-21T06:04:34;100910.31;;;11.58;57.66
48862;BME280;34681;49.188;-0.374;2023-04-21T06:07:06;100909.88;;;11.63;56.93
48862;BME280;34681;49.188;-0.374;2023-04-21T06:09:32;100910.06;;;11.51;56.99
48862;BME280;34681;49.188;-0.374;2023-04-21T06:11:58;100915.81;;;11.48;57.09
48862;BME280;34681;49.188;-0.374;2023-04-21T06:14:23;100912.22;;;11.48;56.93
48862;BME280;34681;49.188;-0.374;2023-04-21T06:16:49;100910.97;;;11.42;57.13
48862;BME280;34681;49.188;-0.374;2023-04-21T06:19:14;100910.06;;;11.51;56.73
48862;BME280;34681;49.188;-0.374;2023-04-21T06:21:39;100905.13;;;11.55;56.87
48862;BME280;34681;49.188;-0.374;2023-04-21T06:24:05;100903.91;;;11.77;55.98
48862;BME280;34681;49.188;-0.374;2023-04-21T06:26:30;100917.78;;;11.85;55.88
48862;BME280;34681;49.188;-0.374;2023-04-21T06:28:56;100909.81;;;11.92;55.63
48862;BME280;34681;49.188;-0.374;2023-04-21T06:31:21;100911.56;;;11.83;56.22
48862;BME280;34681;49.188;-0.374;2023-04-21T06:33:46;100909.50;;;11.95;55.96
48862;BME280;34681;49.188;-0.374;2023-04-21T06:36:11;100914.47;;;12.09;55.34
48862;BME280;34681;49.188;-0.374;2023-04-21T06:38:37;100904.84;;;12.23;55.22
48862;BME280;34681;49.188;-0.374;2023-04-21T06:41:04;100910.94;;;12.44;54.62
48862;BME280;34681;49.188;-0.374;2023-04-21T06:43:30;100904.16;;;12.84;53.72
48862;BME280;34681;49.188;-0.374;2023-04-21T06:45:55;100900.50;;;13.19;52.75
48862;BME280;34681;49.188;-0.374;2023-04-21T06:48:21;100899.81;;;13.69;51.64
48862;BME280;34681;49.188;-0.374;2023-04-21T06:50:46;100897.06;;;14.45;49.71
48862;BME280;34681;49.188;-0.374;2023-04-21T06:53:11;100890.22;;;15.39;48.31
48862;BME280;34681;49.188;-0.374;2023-04-21T06:55:37;100905.81;;;15.95;47.07
48862;BME280;34681;49.188;-0.374;2023-04-21T06:58:03;100896.97;;;17.01;45.28
48862;BME280;34681;49.188;-0.374;2023-04-21T07:00:28;100899.97;;;16.69;44.59
48862;BME280;34681;49.188;-0.374;2023-04-21T07:02:53;100891.38;;;16.24;46.08
48862;BME280;34681;49.188;-0.374;2023-04-21T07:05:19;100892.75;;;16.20;45.72
48862;BME280;34681;49.188;-0.374;2023-04-21T07:07:44;100886.94;;;16.15;45.63
48862;BME280;34681;49.188;-0.374;2023-04-21T07:10:10;100884.00;;;17.02;44.73
48862;BME280;34681;49.188;-0.374;2023-04-21T07:12:35;100886.75;;;18.58;41.99
48862;BME280;34681;49.188;-0.374;2023-04-21T07:15:00;100887.38;;;19.39;40.25
48862;BME280;34681;49.188;-0.374;2023-04-21T07:17:26;100879.38;;;22.26;35.46
48862;BME280;34681;49.188;-0.374;2023-04-21T07:19:51;100888.94;;;23.95;33.28
48862;BME280;34681;49.188;-0.374;2023-04-21T07:22:16;100886.47;;;24.60;32.14
48862;BME280;34681;49.188;-0.374;2023-04-21T07:24:42;100888.41;;;24.59;31.80
48862;BME280;34681;49.188;-0.374;2023-04-21T07:27:07;100880.69;;;25.80;30.02
48862;BME280;34681;49.188;-0.374;2023-04-21T07:29:32;100878.09;;;26.49;29.48
48862;BME280;34681;49.188;-0.374;2023-04-21T07:31:58;100882.97;;;27.61;28.52
48862;BME280;34681;49.188;-0.374;2023-04-21T07:34:23;100891.97;;;28.30;27.40
48862;BME280;34681;49.188;-0.374;2023-04-21T07:36:51;100883.81;;;28.77;26.58
48862;BME280;34681;49.188;-0.374;2023-04-21T07:39:17;100882.66;;;28.30;26.59
48862;BME280;34681;49.188;-0.374;2023-04-21T07:41:42;100877.50;;;28.05;26.63
48862;BME280;34681;49.188;-0.374;2023-04-21T07:44:07;100879.78;;;28.46;26.80
48862;BME280;34681;49.188;-0.374;2023-04-21T07:46:33;100881.81;;;28.29;26.27
48862;BME280;34681;49.188;-0.374;2023-04-21T07:48:58;100874.72;;;26.00;28.21
48862;BME280;34681;49.188;-0.374;2023-04-21T07:51:25;100872.59;;;24.65;29.60
48862;BME280;34681;49.188;-0.374;2023-04-21T07:53:51;100874.13;;;22.88;32.07
48862;BME280;34681;49.188;-0.374;2023-04-21T07:56:17;100871.75;;;22.47;33.39
48862;BME280;34681;49.188;-0.374;2023-04-21T07:58:42;100879.25;;;23.47;31.93
48862;BME280;34681;49.188;-0.374;2023-04-21T08:01:08;100873.16;;;25.04;29.75
48862;BME280;34681;49.188;-0.374;2023-04-21T08:03:33;100872.41;;;25.50;29.84
48862;BME280;34681;49.188;-0.374;2023-04-21T08:05:59;100879.28;;;26.29;28.31
48862;BME280;34681;49.188;-0.374;2023-04-21T08:08:24;100871.50;;;26.43;27.86
48862;BME280;34681;49.188;-0.374;2023-04-21T08:10:50;100877.22;;;27.05;27.68
48862;BME280;34681;49.188;-0.374;2023-04-21T08:13:15;100871.91;;;26.92;27.24
48862;BME280;34681;49.188;-0.374;2023-04-21T08:15:40;100869.97;;;24.70;28.74
48862;BME280;34681;49.188;-0.374;2023-04-21T08:18:07;100861.88;;;25.22;29.16
48862;BME280;34681;49.188;-0.374;2023-04-21T08:20:32;100870.13;;;25.82;28.28
48862;BME280;34681;49.188;-0.374;2023-04-21T08:22:58;100860.66;;;25.18;28.07
48862;BME280;34681;49.188;-0.374;2023-04-21T08:25:23;100869.06;;;24.40;29.82
48862;BME280;34681;49.188;-0.374;2023-04-21T08:27:48;100862.00;;;24.00;31.10
48862;BME280;34681;49.188;-0.374;2023-04-21T08:30:14;100863.03;;;24.73;30.15
48862;BME280;34681;49.188;-0.374;2023-04-21T08:32:40;100854.44;;;23.58;30.40
48862;BME280;34681;49.188;-0.374;2023-04-21T08:35:05;100850.31;;;23.17;32.12
48862;BME280;34681;49.188;-0.374;2023-04-21T08:37:31;100851.63;;;23.64;30.79
48862;BME280;34681;49.188;-0.374;2023-04-21T08:39:56;100857.25;;;23.58;31.76
48862;BME280;34681;49.188;-0.374;2023-04-21T08:42:21;100854.25;;;23.84;31.37
48862;BME280;34681;49.188;-0.374;2023-04-21T08:44:47;100854.66;;;23.38;31.27
48862;BME280;34681;49.188;-0.374;2023-04-21T08:47:13;100857.25;;;23.58;31.52
48862;BME280;34681;49.188;-0.374;2023-04-21T08:49:40;100852.41;;;22.96;32.16
48862;BME280;34681;49.188;-0.374;2023-04-21T08:52:07;100846.66;;;21.88;34.38
48862;BME280;34681;49.188;-0.374;2023-04-21T08:54:33;100850.50;;;21.94;35.84
48862;BME280;34681;49.188;-0.374;2023-04-21T08:57:00;100846.94;;;20.94;34.92
48862;BME280;34681;49.188;-0.374;2023-04-21T08:59:27;100854.13;;;20.62;35.57
48862;BME280;34681;49.188;-0.374;2023-04-21T09:02:09;100848.44;;;21.63;34.58
48862;BME280;34681;49.188;-0.374;2023-04-21T09:04:44;100845.69;;;23.04;33.00
48862;BME280;34681;49.188;-0.374;2023-04-21T09:07:10;100846.28;;;23.63;31.88
48862;BME280;34681;49.188;-0.374;2023-04-21T09:09:54;100842.88;;;23.36;31.25
48862;BME280;34681;49.188;-0.374;2023-04-21T09:12:20;100837.91;;;23.38;31.53
48862;BME280;34681;49.188;-0.374;2023-04-21T09:14:45;100838.03;;;22.03;32.16
48862;BME280;34681;49.188;-0.374;2023-04-21T09:17:11;100834.97;;;21.47;34.06
48862;BME280;34681;49.188;-0.374;2023-04-21T09:19:37;100833.00;;;21.01;34.00
48862;BME280;34681;49.188;-0.374;2023-04-21T09:22:02;100841.50;;;20.53;35.23
48862;BME280;34681;49.188;-0.374;2023-04-21T09:24:28;100833.63;;;20.70;35.42
48862;BME280;34681;49.188;-0.374;2023-04-21T09:26:54;100831.94;;;20.89;36.03
48862;BME280;34681;49.188;-0.374;2023-04-21T09:29:23;100818.94;;;21.29;35.40
48862;BME280;34681;49.188;-0.374;2023-04-21T09:31:49;100823.16;;;20.98;35.58
48862;BME280;34681;49.188;-0.374;2023-04-21T09:34:23;100829.66;;;19.90;35.71
48862;BME280;34681;49.188;-0.374;2023-04-21T09:37:02;100828.72;;;17.99;39.37
48862;BME280;34681;49.188;-0.374;2023-04-21T09:39:29;100825.59;;;17.72;39.94
48862;BME280;34681;49.188;-0.374;2023-04-21T09:41:55;100820.53;;;18.84;38.45
48862;BME280;34681;49.188;-0.374;2023-04-21T09:44:22;100825.06;;;20.10;37.20
48862;BME280;34681;49.188;-0.374;2023-04-21T09:46:48;100822.91;;;20.67;36.21
48862;BME280;34681;49.188;-0.374;2023-04-21T09:49:16;100813.97;;;21.11;36.01
48862;BME280;34681;49.188;-0.374;2023-04-21T09:51:42;100816.97;;;21.23;33.95
48862;BME280;34681;49.188;-0.374;2023-04-21T09:54:18;100812.28;;;21.37;33.31
48862;BME280;34681;49.188;-0.374;2023-04-21T09:56:48;100815.19;;;19.60;35.82
48862;BME280;34681;49.188;-0.374;2023-04-21T09:59:18;100797.63;;;18.54;37.15
48862;BME280;34681;49.188;-0.374;2023-04-21T10:01:47;100806.03;;;17.88;39.15
48862;BME280;34681;49.188;-0.374;2023-04-21T10:04:14;100813.31;;;17.37;39.07
48862;BME280;34681;49.188;-0.374;2023-04-21T10:06:40;100798.63;;;17.36;39.76
48862;BME280;34681;49.188;-0.374;2023-04-21T10:09:07;100798.88;;;16.97;40.16
48862;BME280;34681;49.188;-0.374;2023-04-21T10:11:34;100789.75;;;16.74;40.69
48862;BME280;34681;49.188;-0.374;2023-04-21T10:14:01;100794.41;;;16.50;41.39
48862;BME280;34681;49.188;-0.374;2023-04-21T10:16:28;100791.88;;;16.18;42.71
48862;BME280;34681;49.188;-0.374;2023-04-21T10:18:53;100793.81;;;17.01;41.20
48862;BME280;34681;49.188;-0.374;2023-04-21T10:21:20;100795.09;;;16.75;41.35
48862;BME280;34681;49.188;-0.374;2023-04-21T10:23:49;100801.66;;;15.97;42.78
48862;BME280;34681;49.188;-0.374;2023-04-21T10:26:18;100802.72;;;16.19;42.62
48862;BME280;34681;49.188;-0.374;2023-04-21T10:28:51;100791.72;;;17.03;41.94
48862;BME280;34681;49.188;-0.374;2023-04-21T10:31:19;100799.81;;;16.13;41.28
48862;BME280;34681;49.188;-0.374;2023-04-21T10:39:02;100786.91;;;15.82;43.78
48862;BME280;34681;49.188;-0.374;2023-04-21T10:41:32;100786.63;;;15.61;45.32
48862;BME280;34681;49.188;-0.374;2023-04-21T10:43:59;100780.34;;;15.83;43.84
48862;BME280;34681;49.188;-0.374;2023-04-21T10:46:35;100773.28;;;16.57;42.79
48862;BME280;34681;49.188;-0.374;2023-04-21T10:49:10;100774.88;;;17.27;41.50
48862;BME280;34681;49.188;-0.374;2023-04-21T10:54:25;100775.34;;;15.31;42.25
48862;BME280;34681;49.188;-0.374;2023-04-21T10:56:52;100765.97;;;15.49;43.60
48862;BME280;34681;49.188;-0.374;2023-04-21T10:59:18;100760.84;;;16.16;43.14
48862;BME280;34681;49.188;-0.374;2023-04-21T11:01:44;100761.16;;;15.90;42.87
48862;BME280;34681;49.188;-0.374;2023-04-21T11:04:13;100753.88;;;15.66;42.72
48862;BME280;34681;49.188;-0.374;2023-04-21T11:06:39;100746.34;;;15.43;44.18
48862;BME280;34681;49.188;-0.374;2023-04-21T11:09:05;100747.47;;;15.73;43.39
48862;BME280;34681;49.188;-0.374;2023-04-21T11:11:30;100752.06;;;15.81;43.06
48862;BME280;34681;49.188;-0.374;2023-04-21T11:13:59;100741.91;;;16.05;43.99
48862;BME280;34681;49.188;-0.374;2023-04-21T11:16:24;100731.69;;;15.90;43.37
48862;BME280;34681;49.188;-0.374;2023-04-21T11:18:50;100741.69;;;15.44;45.16
48862;BME280;34681;49.188;-0.374;2023-04-21T11:21:16;100738.09;;;15.83;44.92
48862;BME280;34681;49.188;-0.374;2023-04-21T11:23:50;100729.50;;;15.78;44.63
48862;BME280;34681;49.188;-0.374;2023-04-21T11:26:16;100728.75;;;15.44;43.81
48862;BME280;34681;49.188;-0.374;2023-04-21T11:28:41;100722.69;;;15.88;43.17
48862;BME280;34681;49.188;-0.374;2023-04-21T11:31:07;100731.16;;;16.41;44.61
48862;BME280;34681;49.188;-0.374;2023-04-21T11:33:38;100718.06;;;16.80;42.10
48862;BME280;34681;49.188;-0.374;2023-04-21T11:36:05;100720.22;;;16.01;42.00
48862;BME280;34681;49.188;-0.374;2023-04-21T11:38:41;100717.22;;;16.11;41.82
48862;BME280;34681;49.188;-0.374;2023-04-21T11:41:07;100720.53;;;15.76;44.12
48862;BME280;34681;49.188;-0.374;2023-04-21T11:43:35;100710.75;;;15.96;43.98
48862;BME280;34681;49.188;-0.374;2023-04-21T11:46:17;100718.00;;;16.43;42.45
48862;BME280;34681;49.188;-0.374;2023-04-21T11:48:45;100716.66;;;16.39;42.91
48862;BME280;34681;49.188;-0.374;2023-04-21T11:51:17;100719.66;;;16.52;41.69
48862;BME280;34681;49.188;-0.374;2023-04-21T11:53:45;100709.13;;;15.79;44.51
48862;BME280;34681;49.188;-0.374;2023-04-21T11:56:11;100709.13;;;15.79;44.38
48862;BME280;34681;49.188;-0.374;2023-04-21T11:58:37;100707.22;;;16.10;43.94
48862;BME280;34681;49.188;-0.374;2023-04-21T12:01:07;100715.78;;;16.38;43.32
48862;BME280;34681;49.188;-0.374;2023-04-21T12:03:33;100704.81;;;16.91;41.73
48862;BME280;34681;49.188;-0.374;2023-04-21T12:05:58;100710.53;;;17.33;42.51
48862;BME280;34681;49.188;-0.374;2023-04-21T12:08:28;100701.94;;;16.84;40.99
48862;BME280;34681;49.188;-0.374;2023-04-21T12:10:53;100701.16;;;16.15;43.99
48862;BME280;34681;49.188;-0.374;2023-04-21T12:13:22;100702.75;;;16.09;42.76
48862;BME280;34681;49.188;-0.374;2023-04-21T12:15:47;100699.38;;;15.99;43.76
48862;BME280;34681;49.188;-0.374;2023-04-21T12:18:13;100701.59;;;16.64;42.88
48862;BME280;34681;49.188;-0.374;2023-04-21T12:20:48;100698.06;;;16.55;42.30
48862;BME280;34681;49.188;-0.374;2023-04-21T12:23:14;100703.13;;;16.67;43.30
48862;BME280;34681;49.188;-0.374;2023-04-21T12:25:40;100706.28;;;16.18;43.05
48862;BME280;34681;49.188;-0.374;2023-04-21T12:28:07;100695.53;;;15.77;44.72
48862;BME280;34681;49.188;-0.374;2023-04-21T12:30:32;100700.16;;;16.31;43.47
48862;BME280;34681;49.188;-0.374;2023-04-21T12:32:58;100691.31;;;16.12;44.14
48862;BME280;34681;49.188;-0.374;2023-04-21T12:35:24;100690.72;;;16.25;44.09
48862;BME280;34681;49.188;-0.374;2023-04-21T12:37:50;100692.84;;;15.92;43.62
48862;BME280;34681;49.188;-0.374;2023-04-21T12:40:15;100698.22;;;15.54;44.36
48862;BME280;34681;49.188;-0.374;2023-04-21T12:42:41;100697.16;;;15.55;44.49
48862;BME280;34681;49.188;-0.374;2023-04-21T12:45:06;100690.47;;;15.89;43.81
48862;BME280;34681;49.188;-0.374;2023-04-21T12:47:33;100705.16;;;16.50;42.67